createdAt,value
2019-05-20T00:01:40.001Z,68.70
2019-05-20T00:04:08.722Z,69.34
2019-05-20T00:06:37.432Z,69.87
2019-05-20T00:09:06.286Z,69.86
2019-05-20T00:11:35.011Z,69.69
2019-05-20T00:14:03.804Z,69.58
2019-05-20T00:16:32.523Z,69.42
2019-05-20T00:19:01.276Z,69.45
2019-05-20T00:21:30.003Z,70.09
2019-05-20T00:23:58.640Z,69.96
2019-05-20T00:26:27.532Z,69.83
2019-05-20T00:28:56.279Z,69.38
2019-05-20T00:31:25.000Z,68.69
2019-05-20T00:33:53.737Z,68.61
2019-05-20T00:36:22.473Z,69.83
2019-05-20T00:39:19.751Z,72.69
2019-05-20T00:41:49.216Z,70.33
2019-05-20T00:44:18.730Z,70.26
2019-05-20T00:46:47.559Z,70.92
2019-05-20T00:49:16.192Z,70.22
2019-05-20T00:51:45.234Z,69.95
2019-05-20T00:54:13.955Z,71.53
2019-05-20T00:56:42.904Z,74.85
2019-05-20T00:59:11.500Z,72.71
2019-05-20T01:01:40.032Z,76.79
2019-05-20T01:04:08.641Z,74.14
2019-05-20T01:06:37.240Z,75.08
2019-05-20T01:09:07.289Z,76.65
2019-05-20T01:11:35.841Z,75.21
2019-05-20T01:14:04.723Z,75.03
2019-05-20T01:16:33.310Z,74.94
2019-05-20T01:19:01.831Z,75.30
2019-05-20T01:21:30.425Z,76.26
2019-05-20T01:23:58.832Z,75.69
2019-05-20T01:26:27.415Z,77.42
2019-05-20T01:28:56.199Z,78.60
2019-05-20T01:31:24.951Z,78.18
2019-05-20T01:33:53.426Z,76.97
2019-05-20T01:36:21.920Z,77.46
2019-05-20T01:38:50.510Z,76.77
2019-05-20T01:41:19.121Z,77.14
2019-05-20T01:43:47.798Z,76.52
2019-05-20T01:46:16.407Z,76.13
2019-05-20T01:48:44.878Z,77.65
2019-05-20T01:51:13.389Z,77.41
2019-05-20T01:53:41.852Z,78.28
2019-05-20T01:56:10.513Z,79.71
2019-05-20T01:58:39.797Z,78.94
2019-05-20T02:01:08.447Z,78.58
2019-05-20T02:03:36.804Z,77.72
2019-05-20T02:06:05.391Z,80.24
2019-05-20T02:08:33.869Z,77.42
2019-05-20T02:11:02.403Z,77.67
2019-05-20T02:13:51.753Z,77.90
2019-05-20T02:16:20.422Z,78.32
2019-05-20T02:18:48.939Z,78.65
2019-05-20T02:21:17.554Z,78.38
2019-05-20T02:23:46.064Z,78.77
2019-05-20T02:26:14.559Z,79.18
2019-05-20T02:28:43.288Z,79.36
2019-05-20T02:31:11.806Z,82.09
2019-05-20T02:33:51.723Z,80.38
2019-05-20T02:36:10.728Z,80.10
2019-05-20T02:38:39.276Z,79.63
2019-05-20T02:41:07.855Z,79.90
2019-05-20T02:43:36.381Z,81.62
2019-05-20T02:46:05.463Z,82.45
2019-05-20T02:48:33.948Z,83.33
2019-05-20T02:51:02.512Z,84.62
2019-05-20T02:53:31.269Z,83.30
2019-05-20T02:55:59.761Z,83.54
2019-05-20T02:58:28.246Z,83.41
2019-05-20T03:00:56.739Z,83.39
2019-05-20T03:03:25.395Z,84.96
2019-05-20T03:05:53.888Z,84.53
2019-05-20T03:08:22.524Z,82.98
2019-05-20T03:10:51.115Z,83.99
2019-05-20T03:13:19.600Z,84.40
2019-05-20T03:15:48.089Z,83.48
2019-05-20T03:18:16.686Z,83.52
2019-05-20T03:20:45.195Z,83.05
2019-05-20T03:23:13.813Z,82.35
2019-05-20T03:25:44.920Z,80.38
2019-05-20T03:28:13.395Z,80.72
2019-05-20T03:30:42.925Z,80.03
2019-05-20T03:33:11.488Z,79.90
2019-05-20T03:35:40.001Z,78.70
2019-05-20T03:38:08.706Z,80.11
2019-05-20T03:40:37.235Z,78.88
2019-05-20T03:43:05.842Z,79.51
2019-05-20T03:45:34.423Z,78.87
2019-05-20T03:48:03.009Z,78.50
2019-05-20T03:50:31.554Z,77.97
2019-05-20T03:53:00.351Z,77.71
2019-05-20T03:55:28.826Z,77.75
2019-05-20T03:57:57.453Z,77.60
2019-05-20T04:00:44.104Z,77.52
2019-05-20T04:03:13.517Z,78.83
2019-05-20T04:05:42.399Z,82.39
2019-05-20T04:08:11.053Z,78.87
2019-05-20T04:10:39.775Z,80.69
2019-05-20T04:13:08.466Z,81.40
2019-05-20T04:15:37.067Z,82.38
2019-05-20T04:18:05.688Z,81.57
2019-05-20T04:20:34.319Z,81.64
2019-05-20T04:23:02.851Z,82.11
2019-05-20T04:25:31.580Z,84.84
2019-05-20T04:28:00.099Z,84.31
2019-05-20T04:30:28.725Z,83.61
2019-05-20T04:32:57.429Z,85.77
2019-05-20T04:35:25.900Z,83.40
2019-05-20T04:37:54.488Z,84.37
2019-05-20T04:40:22.992Z,84.02
2019-05-20T04:42:51.584Z,82.72
2019-05-20T04:45:20.196Z,81.37
2019-05-20T04:47:48.810Z,81.06
2019-05-20T04:50:17.507Z,82.85
2019-05-20T04:52:46.025Z,79.25
2019-05-20T04:55:14.544Z,80.24
2019-05-20T04:57:43.048Z,81.48
2019-05-20T05:00:12.501Z,81.02
2019-05-20T05:02:43.572Z,82.37
2019-05-20T05:05:11.720Z,82.20
2019-05-20T05:07:40.357Z,82.52
2019-05-20T05:10:10.012Z,84.02
2019-05-20T05:12:38.672Z,83.71
2019-05-20T05:15:08.329Z,85.45
2019-05-20T05:17:37.143Z,83.85
2019-05-20T05:20:06.700Z,83.43
2019-05-20T05:22:35.299Z,85.58
2019-05-20T05:25:04.625Z,83.81
2019-05-20T05:27:33.243Z,84.99
2019-05-20T05:30:01.923Z,86.67
2019-05-20T05:32:42.733Z,85.88
2019-05-20T05:35:13.794Z,84.78
2019-05-20T05:37:49.198Z,86.62
2019-05-20T05:40:17.915Z,84.00
2019-05-20T05:42:46.419Z,84.29
2019-05-20T05:45:14.960Z,83.36
2019-05-20T05:47:43.584Z,84.08
2019-05-20T05:50:12.936Z,82.63
2019-05-20T05:52:41.583Z,83.22
2019-05-20T05:55:10.663Z,83.27
2019-05-20T05:57:39.317Z,83.52
2019-05-20T06:00:09.336Z,81.97
2019-05-20T06:02:37.947Z,81.46
2019-05-20T06:05:06.814Z,80.96
2019-05-20T06:07:35.453Z,80.46
2019-05-20T06:10:04.611Z,79.79
2019-05-20T06:12:33.305Z,79.21
2019-05-20T06:15:01.941Z,78.96
2019-05-20T06:17:30.627Z,78.85
2019-05-20T06:19:59.210Z,79.19
2019-05-20T06:22:27.811Z,79.03
2019-05-20T06:24:56.346Z,78.59
2019-05-20T06:27:24.859Z,78.81
2019-05-20T06:29:53.493Z,79.26
2019-05-20T06:32:22.009Z,80.05
2019-05-20T06:34:50.648Z,80.55
2019-05-20T06:37:21.354Z,79.20
2019-05-20T06:39:51.317Z,78.58
2019-05-20T06:42:19.911Z,78.87
2019-05-20T06:44:53.088Z,78.68
2019-05-20T06:47:19.105Z,79.16
2019-05-20T06:49:47.591Z,78.81
2019-05-20T06:52:16.183Z,79.08
2019-05-20T06:54:44.886Z,77.69
2019-05-20T06:57:13.628Z,77.62
2019-05-20T06:59:42.133Z,76.89
2019-05-20T07:02:10.785Z,76.68
2019-05-20T07:04:39.263Z,76.51
2019-05-20T07:07:20.519Z,76.13
2019-05-20T07:09:38.325Z,75.59
2019-05-20T07:12:06.939Z,75.75
2019-05-20T07:14:35.492Z,75.73
2019-05-20T07:17:04.023Z,75.53
2019-05-20T07:19:32.894Z,76.62
2019-05-20T07:22:01.427Z,76.11
2019-05-20T07:24:30.070Z,74.33
2019-05-20T07:26:58.592Z,74.68
2019-05-20T07:29:27.319Z,74.17
2019-05-20T07:31:56.032Z,74.61
2019-05-20T07:34:24.978Z,74.70
2019-05-20T07:37:03.148Z,73.81
2019-05-20T07:39:23.991Z,73.94
2019-05-20T07:41:52.617Z,73.01
2019-05-20T07:44:21.130Z,73.68
2019-05-20T07:46:50.140Z,72.74
2019-05-20T07:49:19.388Z,72.86
2019-05-20T07:51:48.515Z,71.86
2019-05-20T07:54:18.359Z,72.58
2019-05-20T07:56:49.630Z,72.67
2019-05-20T07:59:21.992Z,72.67
2019-05-20T08:01:50.975Z,72.37
2019-05-20T08:04:19.666Z,71.20
2019-05-20T08:06:48.370Z,71.95
2019-05-20T08:09:17.000Z,72.93
2019-05-20T08:11:48.347Z,71.66
2019-05-20T08:14:17.146Z,71.69
2019-05-20T08:16:45.563Z,70.09
2019-05-20T08:19:14.083Z,70.52
2019-05-20T08:21:42.797Z,70.25
2019-05-20T08:24:11.300Z,69.34
2019-05-20T08:26:39.804Z,70.36
2019-05-20T08:29:08.332Z,70.34
2019-05-20T08:31:36.895Z,70.20
2019-05-20T08:34:05.809Z,68.43
2019-05-20T08:36:34.526Z,68.14
2019-05-20T08:39:04.540Z,68.21
2019-05-20T08:41:33.055Z,67.43
2019-05-20T08:44:01.641Z,66.50
2019-05-20T08:46:30.300Z,66.85
2019-05-20T08:48:58.852Z,66.96
2019-05-20T08:51:27.521Z,67.17
2019-05-20T08:53:56.147Z,66.00
2019-05-20T08:56:24.675Z,63.31
2019-05-20T08:58:53.279Z,62.69
2019-05-20T09:01:21.784Z,62.38
2019-05-20T09:03:50.303Z,63.37
2019-05-20T09:06:20.818Z,63.95
2019-05-20T09:08:49.409Z,64.41
2019-05-20T09:11:18.055Z,64.44
2019-05-20T09:13:46.706Z,63.48
2019-05-20T09:16:15.303Z,63.07
2019-05-20T09:18:44.031Z,63.42
2019-05-20T09:21:12.786Z,62.28
2019-05-20T09:23:41.430Z,61.36
2019-05-20T09:26:10.041Z,61.10
2019-05-20T09:28:38.782Z,61.92
2019-05-20T09:31:07.617Z,60.91
2019-05-20T09:33:36.874Z,57.81
2019-05-20T09:36:05.491Z,56.57
2019-05-20T09:38:36.886Z,55.56
2019-05-20T09:41:04.602Z,55.75
2019-05-20T09:43:33.207Z,56.79
2019-05-20T09:46:07.734Z,56.95
2019-05-20T09:48:32.108Z,58.38
2019-05-20T09:51:00.616Z,57.04
2019-05-20T09:53:29.126Z,57.07
2019-05-20T09:55:57.770Z,57.38
2019-05-20T09:58:26.346Z,57.79
2019-05-20T10:00:54.756Z,58.64
2019-05-20T10:03:23.240Z,59.43
2019-05-20T10:05:51.942Z,59.13
2019-05-20T10:08:36.377Z,59.70
2019-05-20T10:10:50.782Z,59.82
2019-05-20T10:13:19.480Z,59.41
2019-05-20T10:15:47.982Z,61.58
2019-05-20T10:18:16.549Z,61.25
2019-05-20T10:21:18.548Z,61.04
2019-05-20T10:23:47.412Z,57.54
2019-05-20T10:26:16.107Z,56.64
2019-05-20T10:28:46.964Z,56.59
2019-05-20T10:31:15.393Z,55.71
2019-05-20T10:33:43.968Z,56.02
2019-05-20T10:36:12.520Z,56.12
2019-05-20T10:38:56.736Z,55.84
2019-05-20T10:41:11.514Z,55.23
2019-05-20T10:43:40.285Z,55.68
2019-05-20T10:46:08.886Z,55.62
2019-05-20T10:48:37.403Z,56.35
2019-05-20T10:51:05.931Z,57.90
2019-05-20T10:53:34.466Z,56.96
2019-05-20T10:56:03.276Z,56.74
2019-05-20T10:58:32.141Z,57.20
2019-05-20T11:01:03.178Z,57.30
2019-05-20T11:03:31.253Z,56.96
2019-05-20T11:05:59.941Z,56.30
2019-05-20T11:08:28.478Z,56.61
2019-05-20T11:10:57.004Z,57.65
2019-05-20T11:13:25.798Z,58.19
2019-05-20T11:15:54.331Z,56.95
2019-05-20T11:18:23.003Z,56.81
2019-05-20T11:20:51.647Z,56.96
2019-05-20T11:23:20.054Z,57.16
2019-05-20T11:25:48.648Z,59.00
2019-05-20T11:28:17.154Z,57.89
2019-05-20T11:30:45.789Z,58.18
2019-05-20T11:33:14.389Z,57.14
2019-05-20T11:35:43.174Z,54.42
2019-05-20T11:38:11.871Z,49.89
2019-05-20T11:40:40.482Z,50.28
2019-05-20T11:43:08.992Z,50.40
2019-05-20T11:45:37.713Z,48.99
2019-05-20T11:48:06.220Z,48.96
2019-05-20T11:50:34.858Z,48.10
2019-05-20T11:53:03.648Z,47.24
2019-05-20T11:55:32.168Z,48.79
2019-05-20T11:58:14.681Z,47.22
2019-05-20T12:00:31.258Z,47.65
2019-05-20T12:02:59.983Z,47.96
2019-05-20T12:05:28.556Z,48.14
2019-05-20T12:07:57.393Z,48.35
2019-05-20T12:10:26.107Z,48.25
2019-05-20T12:12:54.604Z,48.06
2019-05-20T12:15:23.201Z,46.93
2019-05-20T12:17:52.101Z,48.39
2019-05-20T12:20:20.816Z,46.60
2019-05-20T12:22:49.731Z,45.93
2019-05-20T12:25:18.718Z,46.67
2019-05-20T12:27:47.469Z,46.30
2019-05-20T12:30:16.979Z,47.25
2019-05-20T12:32:45.684Z,47.92
2019-05-20T12:35:14.350Z,47.61
2019-05-20T12:37:45.638Z,46.90
2019-05-20T12:40:14.027Z,48.43
2019-05-20T12:42:42.638Z,48.85
2019-05-20T12:45:11.493Z,46.95
2019-05-20T12:47:40.161Z,47.93
2019-05-20T12:50:09.490Z,49.73
2019-05-20T12:52:38.246Z,49.32
2019-05-20T12:55:09.491Z,49.60
2019-05-20T12:57:38.452Z,51.77
2019-05-20T13:00:08.660Z,52.04
2019-05-20T13:02:37.245Z,52.22
2019-05-20T13:05:06.086Z,52.12
2019-05-20T13:07:34.768Z,53.41
2019-05-20T13:10:04.566Z,53.47
2019-05-20T13:12:33.464Z,53.89
2019-05-20T13:15:02.096Z,54.83
2019-05-20T13:17:30.731Z,55.20
2019-05-20T13:20:00.628Z,54.99
2019-05-20T13:22:29.420Z,55.02
2019-05-20T13:24:58.430Z,55.46
2019-05-20T13:27:27.058Z,55.80
2019-05-20T13:29:55.770Z,55.62
2019-05-20T13:32:24.395Z,56.85
2019-05-20T13:34:53.197Z,56.25
2019-05-20T13:37:21.808Z,58.00
2019-05-20T13:39:50.511Z,54.52
2019-05-20T13:42:19.215Z,54.81
2019-05-20T13:44:47.786Z,54.69
2019-05-20T13:47:16.445Z,55.78
2019-05-20T13:49:45.072Z,55.87
2019-05-20T13:52:13.649Z,56.12
2019-05-20T13:54:42.291Z,54.91
2019-05-20T13:57:13.230Z,57.01
2019-05-20T13:59:41.661Z,54.13
2019-05-20T14:02:10.521Z,54.85
2019-05-20T14:04:39.137Z,55.54
2019-05-20T14:07:07.708Z,57.98
2019-05-20T14:09:37.581Z,56.64
2019-05-20T14:12:07.916Z,57.40
2019-05-20T14:14:37.484Z,58.40
2019-05-20T14:17:07.020Z,58.02
2019-05-20T14:19:37.555Z,59.23
2019-05-20T14:22:06.547Z,58.64
2019-05-20T14:24:36.511Z,57.86
2019-05-20T14:27:05.845Z,57.45
2019-05-20T14:29:35.072Z,58.55
2019-05-20T14:32:04.751Z,59.11
2019-05-20T14:34:33.881Z,57.84
2019-05-20T14:37:03.196Z,57.71
2019-05-20T14:39:32.396Z,58.22
2019-05-20T14:42:02.247Z,58.77
2019-05-20T14:44:31.706Z,57.44
2019-05-20T14:47:01.524Z,57.61
2019-05-20T14:49:30.521Z,57.24
2019-05-20T14:51:59.642Z,56.83
2019-05-20T14:54:29.998Z,57.18
2019-05-20T14:56:59.489Z,57.28
2019-05-20T14:59:29.151Z,56.79
2019-05-20T15:01:58.543Z,57.35
2019-05-20T15:04:27.718Z,57.51
2019-05-20T15:06:57.120Z,58.28
2019-05-20T15:09:26.301Z,57.34
2019-05-20T15:11:55.105Z,57.74
2019-05-20T15:14:24.258Z,57.58
2019-05-20T15:16:53.332Z,57.90
2019-05-20T15:19:22.791Z,57.91
2019-05-20T15:21:52.065Z,58.07
2019-05-20T15:24:21.160Z,58.10
2019-05-20T15:26:50.828Z,58.48
2019-05-20T15:29:28.199Z,58.24
2019-05-20T15:31:50.307Z,58.22
2019-05-20T15:34:19.020Z,58.85
2019-05-20T15:36:47.968Z,59.34
2019-05-20T15:39:17.275Z,59.70
2019-05-20T15:41:46.677Z,58.95
2019-05-20T15:44:16.068Z,59.17
2019-05-20T15:46:44.953Z,59.36
2019-05-20T15:49:13.988Z,60.19
2019-05-20T15:51:43.124Z,59.62
2019-05-20T15:54:12.114Z,59.97
2019-05-20T15:56:41.135Z,58.85
2019-05-20T15:59:10.045Z,60.04
2019-05-20T16:01:39.073Z,60.34
2019-05-20T16:04:08.281Z,60.00
2019-05-20T16:06:37.327Z,60.42
2019-05-20T16:09:07.790Z,62.02
2019-05-20T16:11:36.495Z,61.01
2019-05-20T16:14:05.633Z,61.01
2019-05-20T16:16:34.183Z,61.96
2019-05-20T16:19:03.181Z,61.37
2019-05-20T16:21:32.147Z,62.50
2019-05-20T16:24:00.626Z,61.24
2019-05-20T16:26:30.068Z,61.97
2019-05-20T16:28:58.736Z,61.48
2019-05-20T16:31:28.067Z,61.86
2019-05-20T16:33:59.477Z,61.67
2019-05-20T16:36:27.572Z,62.13
2019-05-20T16:38:56.301Z,62.24
2019-05-20T16:41:25.613Z,63.27
2019-05-20T16:43:54.130Z,62.96
2019-05-20T16:46:22.917Z,63.07
2019-05-20T16:48:51.541Z,62.29
2019-05-20T16:51:22.195Z,60.91
2019-05-20T16:53:50.510Z,62.50
2019-05-20T16:56:19.408Z,60.70
2019-05-20T16:58:47.939Z,57.96
2019-05-20T17:01:16.435Z,57.62
2019-05-20T17:03:45.024Z,57.46
2019-05-20T17:06:14.030Z,58.35
2019-05-20T17:08:42.424Z,57.54
2019-05-20T17:11:11.262Z,56.71
2019-05-20T17:13:40.090Z,58.94
2019-05-20T17:16:08.887Z,57.17
2019-05-20T17:18:37.493Z,57.83
2019-05-20T17:21:06.382Z,57.15
2019-05-20T17:23:35.096Z,57.66
2019-05-20T17:26:03.742Z,58.54
2019-05-20T17:28:32.317Z,58.75
2019-05-20T17:31:01.031Z,58.66
2019-05-20T17:33:55.822Z,61.15
2019-05-20T17:36:38.845Z,60.05
2019-05-20T17:39:34.758Z,60.21
2019-05-20T17:42:17.631Z,62.72
2019-05-20T17:47:58.205Z,63.25
2019-05-20T17:50:30.613Z,60.40
2019-05-20T17:52:59.615Z,64.38
2019-05-20T17:55:29.608Z,60.23
2019-05-20T17:57:58.845Z,63.16
2019-05-20T18:00:27.711Z,61.05
2019-05-20T18:02:57.065Z,60.10
2019-05-20T18:05:25.564Z,61.15
2019-05-20T18:07:54.286Z,61.73
2019-05-20T18:10:24.800Z,63.11
2019-05-20T18:12:53.398Z,61.72
2019-05-20T18:15:22.110Z,63.11
2019-05-20T18:17:51.582Z,62.96
2019-05-20T18:20:20.718Z,61.72
2019-05-20T18:22:49.664Z,62.39
2019-05-20T18:25:18.495Z,63.65
2019-05-20T18:27:47.238Z,62.30
2019-05-20T18:30:16.214Z,62.13
2019-05-20T18:32:44.929Z,65.18
2019-05-20T18:35:13.890Z,62.18
2019-05-20T18:37:43.224Z,62.18
2019-05-20T18:40:14.853Z,63.67
2019-05-20T18:42:43.504Z,63.07
2019-05-20T18:45:12.544Z,62.34
2019-05-20T18:47:41.876Z,66.71
2019-05-20T18:50:10.790Z,65.16
2019-05-20T18:52:39.761Z,62.33
2019-05-20T18:55:08.461Z,63.23
2019-05-20T18:57:37.209Z,63.16
2019-05-20T19:00:23.411Z,63.92
2019-05-20T19:02:52.044Z,63.21
2019-05-20T19:05:20.918Z,63.49
2019-05-20T19:07:50.365Z,66.12
2019-05-20T19:10:19.238Z,64.79
2019-05-20T19:12:47.961Z,65.16
2019-05-20T19:15:16.712Z,63.46
2019-05-20T19:17:45.491Z,63.25
2019-05-20T19:20:16.009Z,64.38
2019-05-20T19:22:44.979Z,64.95
2019-05-20T19:25:14.144Z,66.50
2019-05-20T19:27:42.777Z,66.90
2019-05-20T19:30:12.009Z,66.64
2019-05-20T19:32:40.479Z,68.70
2019-05-20T19:35:09.488Z,68.07
2019-05-20T19:37:38.194Z,67.76
2019-05-20T19:40:08.481Z,65.71
2019-05-20T19:42:37.373Z,67.01
2019-05-20T19:45:06.195Z,68.64
2019-05-20T19:47:34.900Z,66.79
2019-05-20T19:50:04.006Z,68.55
2019-05-20T19:52:32.607Z,67.92
2019-05-20T19:55:01.454Z,68.42
2019-05-20T19:57:30.210Z,68.54
2019-05-20T19:59:58.804Z,70.21
2019-05-20T20:02:27.447Z,68.47
2019-05-20T20:04:56.049Z,68.48
2019-05-20T20:07:24.772Z,68.57
2019-05-20T20:09:53.270Z,69.26
2019-05-20T20:12:21.968Z,70.01
2019-05-20T20:14:50.560Z,71.64
2019-05-20T20:17:19.318Z,69.74
2019-05-20T20:19:48.145Z,69.44
2019-05-20T20:22:16.653Z,70.31
2019-05-20T20:24:45.135Z,69.87
2019-05-20T20:27:13.871Z,70.04
2019-05-20T20:29:43.174Z,72.04
2019-05-20T20:32:11.773Z,72.26
2019-05-20T20:34:40.388Z,71.17
2019-05-20T20:37:09.003Z,71.95
2019-05-20T20:39:37.687Z,72.74
2019-05-20T20:42:06.155Z,71.85
2019-05-20T20:44:34.554Z,72.23
2019-05-20T20:47:03.146Z,72.46
2019-05-20T20:49:32.153Z,73.06
2019-05-20T20:52:00.759Z,73.40
2019-05-20T20:54:29.388Z,73.84
2019-05-20T20:56:57.880Z,74.04
2019-05-20T20:59:26.389Z,74.48
2019-05-20T21:01:58.990Z,74.94
2019-05-20T21:04:25.580Z,74.51
2019-05-20T21:06:54.090Z,75.10
2019-05-20T21:09:22.826Z,75.31
2019-05-20T21:11:51.393Z,76.00
2019-05-20T21:14:19.978Z,75.92
2019-05-20T21:16:48.461Z,76.03
2019-05-20T21:19:16.941Z,76.82
2019-05-20T21:21:45.428Z,76.35
2019-05-20T21:24:14.821Z,77.09
2019-05-20T21:26:43.397Z,77.27
2019-05-20T21:29:11.889Z,77.16
2019-05-20T21:31:40.532Z,77.47
2019-05-20T21:34:09.073Z,76.23
2019-05-20T21:36:46.996Z,76.80
2019-05-20T21:39:08.246Z,77.21
2019-05-20T21:41:36.743Z,78.57
2019-05-20T21:44:05.919Z,78.26
2019-05-20T21:46:34.513Z,79.02
2019-05-20T21:49:03.016Z,79.38
2019-05-20T21:51:31.596Z,80.30
2019-05-20T21:54:00.199Z,79.25
2019-05-20T21:56:28.780Z,78.86
2019-05-20T21:58:57.415Z,77.81
2019-05-20T22:01:26.122Z,77.91
2019-05-20T22:03:54.606Z,80.09
2019-05-20T22:06:23.006Z,81.06
2019-05-20T22:08:51.587Z,81.51
2019-05-20T22:11:19.980Z,80.57
2019-05-20T22:13:48.472Z,81.61
2019-05-20T22:16:17.072Z,81.18
2019-05-20T22:18:45.570Z,81.81
2019-05-20T22:21:16.049Z,83.61
2019-05-20T22:23:52.912Z,82.56
2019-05-20T22:26:21.494Z,83.96
2019-05-20T22:28:50.191Z,83.75
2019-05-20T22:31:18.678Z,84.36
2019-05-20T22:33:47.274Z,81.13
2019-05-20T22:36:15.855Z,82.41
2019-05-20T22:38:44.336Z,82.54
2019-05-20T22:41:12.940Z,82.40
2019-05-20T22:43:41.560Z,84.11
2019-05-20T22:46:10.279Z,83.94
2019-05-20T22:48:39.004Z,85.11
2019-05-20T22:51:08.069Z,84.47
2019-05-20T22:53:36.570Z,84.21
2019-05-20T22:56:05.061Z,84.57
2019-05-20T22:58:33.746Z,85.53
2019-05-20T23:01:02.338Z,85.58
2019-05-20T23:03:31.035Z,86.77
2019-05-20T23:05:59.624Z,85.56
2019-05-20T23:08:28.212Z,86.12
2019-05-20T23:10:56.832Z,87.18
2019-05-20T23:13:25.413Z,86.79
2019-05-20T23:15:55.735Z,87.60
2019-05-20T23:18:24.328Z,86.44
2019-05-20T23:20:53.032Z,85.25
2019-05-20T23:23:21.736Z,85.62
2019-05-20T23:25:52.809Z,85.10
2019-05-20T23:28:20.733Z,87.37
2019-05-20T23:30:49.328Z,87.92
2019-05-20T23:33:17.940Z,87.48
2019-05-20T23:35:46.592Z,85.55
2019-05-20T23:38:15.600Z,86.38
2019-05-20T23:40:44.880Z,87.06
2019-05-20T23:43:13.583Z,88.24
2019-05-20T23:45:42.384Z,86.99
2019-05-20T23:48:10.761Z,86.94
2019-05-20T23:50:39.352Z,87.67
2019-05-20T23:53:07.728Z,88.11
2019-05-20T23:55:36.214Z,86.40
2019-05-20T23:58:04.880Z,86.45
